Deer Park, WA

2:26 PM PDT on April 27, 2017 (GMT -0700)
| | Change Station

Elev -9999 ft 0.00 °N, 0.00 °E | Updated

Light Rain
Light Rain
°F
Feels Like °F
N
Wind Variable Wind from North
Gusts mph

Today
High -- | Low -- °F
--% Chance of Precip.
Yesterday
High -- | Low -- °F
Precip. -- in
Pressure 29.91 in
Visibility 6.0 miles
Clouds Scattered Clouds 3300 ft
Overcast 4400 ft
Dew Point Not available.
Humidity Not available.
Rainfall --
Snow Depth Not available.
5:37 AM 7:57 PM
Waxing Crescent, 3% visible
METAR KDEW 272053Z AUTO 03003KT 6SM -RA SCT033 OVC044 07/01 A2987 RMK AO2 RAB32 SLP127 P0001 60001 T00720006 51001
Pressure 29.91 in
Visibility 6.0 miles
Clouds Scattered Clouds 3300 ft
Overcast 4400 ft
Dew Point Not available.
Humidity Not available.
Rainfall --
Snow Depth Not available.
5:37 AM 7:57 PM
Waxing Crescent, 3% visible
METAR KDEW 272053Z AUTO 03003KT 6SM -RA SCT033 OVC044 07/01 A2987 RMK AO2 RAB32 SLP127 P0001 60001 T00720006 51001

Get Severe Weather Alerts

Thanks for signing up!

Be on the lookout for a verification email in your inbox.

You'll start receiving the daily forecast at 8 AM.

×

10-Day Weather Forecast

Almanac

Astronomy

Apr. 27, 2017 Rise Set
Actual Time
Civil Twilight
Nautical Twilight
Astronomical Twilight
Moon
Length of Visible Light
Length of Day
Tomorrow will be .
, % of the Moon is Illuminated

Today's Extremes

State Highs State Lows

Community

WunderPhotos

WunderBlog® & News

Nearby

Air Quality

  Air Quality AQ Index Pollutant
Not available.

Snow Depth

Station Depth Elevation

Earthquake Activity

City Distance Mag. Time & Date
Minimum magnitude displayed is 2.5.

Coastal Water Temperatures

Place Temperature

Stations

Nearby Weather Stations

Station Location Temp. Windchill Dew Point Humidity Wind Precip. Elev Updated Type
                   

Watches & Warnings

There are currently no watches in effect.